Time;durP1;ratioP1;P1;durP2;ratioP2;P2;SDS_P1;SDS_P2;PMS_P1;PMS_P2;Temp;Humidity;BMP_temperature;BMP_pressure;BME280_temperature;BME280_humidity;BME280_pressure;Samples;Min_cycle;Max_cycle;Signal;HPM_P1;HPM_P2
2022/10/20 00:01:43;;;;;;;4.63;1.42;;;24.00;99.90;;;;;;5075532;28;20291;-92
2022/10/20 00:04:14;;;;;;;5.68;1.45;;;24.00;99.90;;;;;;5074136;28;20748;-93
2022/10/20 00:06:50;;;;;;;5.45;1.33;;;24.00;99.90;;;;;;5074048;28;20203;-93
2022/10/20 00:09:22;;;;;;;2.55;1.23;;;24.00;99.90;;;;;;5074914;28;20258;-92
2022/10/20 00:11:55;;;;;;;4.18;1.60;;;23.90;99.90;;;;;;5079152;28;20204;-92
2022/10/20 00:14:27;;;;;;;6.95;1.95;;;23.90;99.90;;;;;;5087204;28;20251;-92
2022/10/20 00:17:02;;;;;;;4.70;1.60;;;24.10;99.90;;;;;;5075706;28;20208;-93
2022/10/20 00:19:32;;;;;;;4.93;1.80;;;24.00;99.90;;;;;;5075033;28;20203;-92
2022/10/20 00:22:05;;;;;;;6.43;1.90;;;24.00;99.90;;;;;;5074446;28;20202;-92
2022/10/20 00:24:36;;;;;;;3.85;1.50;;;24.00;99.90;;;;;;5075284;28;20246;-92
2022/10/20 00:27:09;;;;;;;5.18;1.67;;;24.00;99.90;;;;;;5074573;28;20262;-92
2022/10/20 00:29:41;;;;;;;3.85;1.45;;;24.00;99.90;;;;;;5074977;28;20235;-93
2022/10/20 00:32:16;;;;;;;4.55;1.80;;;24.00;99.90;;;;;;5075797;28;20704;-93
2022/10/20 00:34:47;;;;;;;3.92;1.98;;;24.00;99.90;;;;;;5065768;28;20234;-93
2022/10/20 00:37:19;;;;;;;4.60;1.70;;;24.00;99.90;;;;;;5073504;28;20250;-92
2022/10/20 00:39:51;;;;;;;2.58;1.60;;;24.10;99.90;;;;;;5064725;28;20242;-92
2022/10/20 00:42:22;;;;;;;3.42;1.55;;;24.10;99.90;;;;;;5075446;28;20204;-91
2022/10/20 00:44:58;;;;;;;5.30;1.80;;;24.20;99.90;;;;;;5075514;28;20278;-92
2022/10/20 00:47:45;;;;;;;3.88;1.70;;;24.10;99.90;;;;;;5074763;28;20235;-92
2022/10/20 00:50:21;;;;;;;5.28;2.00;;;24.10;99.90;;;;;;5055479;28;20208;-92
2022/10/20 00:52:54;;;;;;;5.43;1.98;;;24.10;99.90;;;;;;5071191;28;20218;-92
2022/10/20 00:55:30;;;;;;;6.38;2.10;;;24.20;99.90;;;;;;5077016;28;20230;-92
2022/10/20 00:58:03;;;;;;;5.22;2.13;;;24.40;99.90;;;;;;5083173;28;20705;-91
2022/10/20 01:00:38;;;;;;;4.75;1.70;;;24.60;99.90;;;;;;5075158;28;20232;-92
2022/10/20 01:03:15;;;;;;;6.22;1.83;;;24.60;99.90;;;;;;5067894;28;20545;-92
2022/10/20 01:05:48;;;;;;;3.75;1.75;;;24.70;99.90;;;;;;5058469;28;20279;-92
2022/10/20 01:08:20;;;;;;;4.20;1.60;;;24.90;99.90;;;;;;5060521;28;20303;-94
2022/10/20 01:11:02;;;;;;;6.85;2.10;;;25.20;99.90;;;;;;5087830;28;20196;-92
2022/10/20 01:13:42;;;;;;;3.67;1.50;;;25.40;99.90;;;;;;5083853;28;20208;-92
2022/10/20 01:16:19;;;;;;;3.63;1.52;;;25.70;99.90;;;;;;5075811;28;20657;-93
2022/10/20 01:19:02;;;;;;;4.68;1.60;;;25.80;99.90;;;;;;5076405;28;20215;-91
2022/10/20 01:21:57;;;;;;;3.97;1.85;;;26.00;99.90;;;;;;5068895;28;20212;-93
2022/10/20 01:24:47;;;;;;;4.57;1.60;;;25.80;99.90;;;;;;5059968;28;20203;-93
2022/10/20 01:27:44;;;;;;;4.90;1.92;;;25.70;99.90;;;;;;5075545;28;20275;-92
2022/10/20 01:30:20;;;;;;;5.20;2.00;;;25.80;99.90;;;;;;5075707;28;20199;-94
2022/10/20 01:33:09;;;;;;;3.47;1.60;;;25.70;99.90;;;;;;5075782;28;20199;-92
2022/10/20 01:36:01;;;;;;;3.40;1.48;;;25.70;99.90;;;;;;5073510;28;20214;-92
2022/10/20 01:38:39;;;;;;;3.33;1.23;;;25.70;99.90;;;;;;5055781;28;20203;-91
2022/10/20 01:41:17;;;;;;;3.80;1.33;;;25.60;99.90;;;;;;5049708;28;20306;-92
2022/10/20 01:43:51;;;;;;;1.73;1.05;;;25.50;99.90;;;;;;5048947;28;20215;-94
2022/10/20 01:46:26;;;;;;;2.13;1.20;;;25.40;99.90;;;;;;5048151;28;20235;-92
2022/10/20 01:48:59;;;;;;;2.45;1.05;;;25.20;99.90;;;;;;5052879;28;20234;-93
2022/10/20 01:51:33;;;;;;;1.25;0.88;;;25.10;99.90;;;;;;5058010;28;20290;-93
2022/10/20 01:54:04;;;;;;;2.58;0.93;;;24.90;99.90;;;;;;5052517;28;20683;-92
2022/10/20 01:56:40;;;;;;;1.38;1.00;;;24.80;99.90;;;;;;5054500;28;20204;-92
2022/10/20 01:59:42;;;;;;;3.70;1.48;;;24.80;99.90;;;;;;5053137;28;20204;-92
2022/10/20 02:02:34;;;;;;;1.40;0.98;;;24.70;99.90;;;;;;5049675;28;20285;-92
2022/10/20 02:05:21;;;;;;;3.65;1.40;;;24.60;99.90;;;;;;5054144;28;20216;-92
2022/10/20 02:07:52;;;;;;;1.50;1.00;;;24.40;99.90;;;;;;5052833;28;20219;-92
2022/10/20 02:10:30;;;;;;;1.98;1.20;;;24.20;99.90;;;;;;5055796;28;20211;-93
2022/10/20 02:13:08;;;;;;;2.88;1.20;;;24.00;99.90;;;;;;5055364;28;20195;-95
2022/10/20 02:15:44;;;;;;;3.65;1.20;;;23.90;99.90;;;;;;5053656;28;20219;-92
2022/10/20 02:18:19;;;;;;;2.60;1.05;;;23.70;99.90;;;;;;5053139;28;20302;-92
2022/10/20 02:20:55;;;;;;;2.97;0.88;;;23.50;99.90;;;;;;5060907;28;20237;-94
2022/10/20 02:23:27;;;;;;;3.60;1.10;;;23.50;99.90;;;;;;5053826;28;20203;-91
2022/10/20 02:26:01;;;;;;;2.50;1.00;;;23.40;99.90;;;;;;5053230;28;20203;-92
2022/10/20 02:28:34;;;;;;;3.47;1.00;;;23.30;99.90;;;;;;5051157;28;20226;-92
2022/10/20 02:31:09;;;;;;;1.80;1.02;;;23.30;99.90;;;;;;5050008;28;20242;-93
2022/10/20 02:33:44;;;;;;;3.13;1.25;;;23.30;99.90;;;;;;5052073;28;20682;-92
2022/10/20 02:36:19;;;;;;;2.00;1.13;;;23.20;99.90;;;;;;5054077;28;20211;-92
2022/10/20 02:38:51;;;;;;;2.42;1.10;;;23.10;99.90;;;;;;5059422;28;20207;-93
2022/10/20 02:41:22;;;;;;;4.50;1.15;;;23.10;99.90;;;;;;5064573;28;20209;-93
2022/10/20 02:43:52;;;;;;;2.63;0.95;;;23.00;99.90;;;;;;5064655;28;20199;-91
2022/10/20 02:46:27;;;;;;;2.33;0.93;;;23.00;99.90;;;;;;5055207;28;21181;-92
2022/10/20 02:49:01;;;;;;;2.30;0.90;;;23.00;99.90;;;;;;5054991;28;20223;-93
2022/10/20 02:51:33;;;;;;;4.07;1.35;;;23.00;99.90;;;;;;5053193;28;20223;-92
2022/10/20 02:54:03;;;;;;;3.65;0.82;;;23.00;99.90;;;;;;5054034;28;20305;-94
2022/10/20 02:56:36;;;;;;;2.35;0.80;;;23.00;99.90;;;;;;5056723;28;20211;-93
2022/10/20 02:59:07;;;;;;;3.40;1.17;;;22.90;99.90;;;;;;5055245;28;20257;-91
2022/10/20 03:01:41;;;;;;;3.15;0.90;;;22.90;99.90;;;;;;5052678;28;20201;-93
2022/10/20 03:04:13;;;;;;;2.00;0.90;;;22.90;99.90;;;;;;5053371;28;20208;-92
2022/10/20 03:06:45;;;;;;;1.48;0.77;;;23.00;99.90;;;;;;5055818;28;20208;-93
2022/10/20 03:09:17;;;;;;;1.15;0.60;;;22.90;99.90;;;;;;5054293;28;20219;-92
2022/10/20 03:11:48;;;;;;;4.20;0.85;;;22.90;99.90;;;;;;5054048;28;20204;-93
2022/10/20 03:14:20;;;;;;;2.45;0.70;;;22.90;99.90;;;;;;5047445;28;20318;-92
2022/10/20 03:16:55;;;;;;;2.95;1.00;;;22.90;99.90;;;;;;5053129;28;20264;-94
2022/10/20 03:19:29;;;;;;;2.60;0.82;;;23.00;99.90;;;;;;5042361;28;20204;-93
2022/10/20 03:21:59;;;;;;;2.30;0.90;;;23.00;99.90;;;;;;5049709;28;20513;-92
2022/10/20 03:24:33;;;;;;;2.72;0.73;;;22.90;99.90;;;;;;5032093;28;20549;-93
2022/10/20 03:27:05;;;;;;;3.83;1.05;;;22.80;99.90;;;;;;5047923;28;21985;-92
2022/10/20 03:29:37;;;;;;;2.03;0.93;;;22.90;99.90;;;;;;5061445;28;20219;-92
2022/10/20 03:32:11;;;;;;;2.50;0.85;;;23.00;99.90;;;;;;5055880;28;20273;-92
2022/10/20 03:34:42;;;;;;;3.78;1.08;;;23.00;99.90;;;;;;5056387;28;20667;-93
2022/10/20 03:37:17;;;;;;;2.38;0.80;;;23.00;99.90;;;;;;5061923;28;20295;-92
2022/10/20 03:39:48;;;;;;;2.88;1.10;;;23.00;99.90;;;;;;5069845;28;20227;-92
2022/10/20 03:42:20;;;;;;;1.70;0.70;;;23.00;99.90;;;;;;5055660;28;20212;-94
2022/10/20 03:44:51;;;;;;;2.65;0.90;;;22.90;99.90;;;;;;5053910;28;20293;-91
2022/10/20 03:47:27;;;;;;;2.78;1.10;;;22.90;99.90;;;;;;5057925;28;20688;-92
2022/10/20 03:50:00;;;;;;;4.18;1.20;;;23.00;99.90;;;;;;5054447;28;20591;-93
2022/10/20 03:52:32;;;;;;;4.00;1.13;;;23.10;99.90;;;;;;5051113;28;20203;-92
2022/10/20 03:55:02;;;;;;;3.90;1.20;;;23.20;99.90;;;;;;5051429;28;20207;-93
2022/10/20 03:57:33;;;;;;;5.00;1.10;;;23.20;99.90;;;;;;5054087;28;20196;-92
2022/10/20 04:00:06;;;;;;;5.47;1.10;;;23.20;99.90;;;;;;5050646;28;20201;-93
2022/10/20 04:02:42;;;;;;;4.80;1.02;;;23.20;99.90;;;;;;5053384;28;20208;-92
2022/10/20 04:05:16;;;;;;;4.43;1.25;;;23.00;99.90;;;;;;5057184;28;20203;-92
2022/10/20 04:07:48;;;;;;;3.72;1.23;;;23.00;99.90;;;;;;5058916;28;20285;-92
2022/10/20 04:10:21;;;;;;;1.85;0.90;;;23.00;99.90;;;;;;5056713;28;20223;-92
2022/10/20 04:12:53;;;;;;;2.50;0.90;;;22.90;99.90;;;;;;5053156;28;20226;-93
2022/10/20 04:15:25;;;;;;;4.88;1.35;;;22.80;99.90;;;;;;5052637;28;21171;-91
2022/10/20 04:17:58;;;;;;;3.50;1.25;;;22.80;99.90;;;;;;5053470;28;20238;-92
2022/10/20 04:20:32;;;;;;;3.42;1.00;;;22.80;99.90;;;;;;5051988;28;20592;-93
2022/10/20 04:23:03;;;;;;;5.78;1.38;;;22.80;99.90;;;;;;5057770;28;20207;-91
2022/10/20 04:25:34;;;;;;;4.15;0.90;;;22.80;99.90;;;;;;5054134;28;20262;-92
2022/10/20 04:28:05;;;;;;;4.45;0.88;;;22.80;99.90;;;;;;5055011;28;20211;-93
2022/10/20 04:30:37;;;;;;;3.42;0.90;;;22.70;99.90;;;;;;5058416;28;20226;-91
2022/10/20 04:33:12;;;;;;;4.90;1.00;;;22.60;99.90;;;;;;5069699;28;20282;-92
2022/10/20 04:35:44;;;;;;;4.15;1.25;;;22.70;99.90;;;;;;5069709;28;20208;-93
2022/10/20 04:38:18;;;;;;;4.03;1.00;;;22.70;99.90;;;;;;5056093;28;20200;-91
2022/10/20 04:40:57;;;;;;;1.83;0.73;;;22.70;99.90;;;;;;5052860;28;20223;-92
2022/10/20 04:43:30;;;;;;;3.70;0.80;;;22.60;99.90;;;;;;5056157;28;20272;-92
2022/10/20 04:46:07;;;;;;;2.70;0.70;;;22.60;99.90;;;;;;5053473;28;20212;-92
2022/10/20 04:48:43;;;;;;;4.57;0.90;;;22.70;99.90;;;;;;5050966;28;20199;-92
2022/10/20 04:51:17;;;;;;;2.20;0.77;;;22.70;99.90;;;;;;5051289;28;20208;-92
2022/10/20 04:53:52;;;;;;;2.40;0.70;;;22.70;99.90;;;;;;5048330;28;20205;-92
2022/10/20 04:56:24;;;;;;;2.15;1.00;;;22.70;99.90;;;;;;5052534;28;20191;-93
2022/10/20 04:58:57;;;;;;;4.40;1.00;;;22.80;99.90;;;;;;5047965;28;20653;-93
2022/10/20 05:01:29;;;;;;;3.58;0.95;;;22.80;99.90;;;;;;5049950;28;20220;-92
2022/10/20 05:04:02;;;;;;;3.70;1.00;;;22.90;99.90;;;;;;5050821;28;20224;-92
2022/10/20 05:06:34;;;;;;;3.13;0.95;;;23.10;99.90;;;;;;5060826;28;20199;-92
2022/10/20 05:09:10;;;;;;;5.18;1.10;;;23.20;99.90;;;;;;5073727;28;20227;-91
2022/10/20 05:11:42;;;;;;;4.25;1.10;;;23.20;99.90;;;;;;5064698;28;20325;-93
2022/10/20 05:14:15;;;;;;;3.28;1.40;;;23.30;99.90;;;;;;5049658;28;20244;-91
2022/10/20 05:16:47;;;;;;;4.88;1.17;;;23.40;99.90;;;;;;5051319;28;20253;-95
2022/10/20 05:19:22;;;;;;;4.20;1.08;;;23.30;99.90;;;;;;5049910;28;20214;-92
2022/10/20 05:21:54;;;;;;;3.58;0.90;;;23.40;99.90;;;;;;5036525;28;21453;-93
2022/10/20 05:24:26;;;;;;;5.65;1.17;;;23.30;99.90;;;;;;5055912;28;20268;-92
2022/10/20 05:26:58;;;;;;;5.93;1.27;;;23.20;99.90;;;;;;5049349;28;20200;-92
2022/10/20 05:29:30;;;;;;;2.15;1.02;;;23.20;99.90;;;;;;5052444;28;20231;-95
2022/10/20 05:32:01;;;;;;;4.55;1.42;;;23.10;99.90;;;;;;5054033;28;20294;-93
2022/10/20 05:34:34;;;;;;;2.88;1.00;;;23.10;99.90;;;;;;5064947;28;20204;-95
2022/10/20 05:37:05;;;;;;;3.13;1.10;;;23.10;99.90;;;;;;5076176;28;20295;-92
2022/10/20 05:39:37;;;;;;;3.85;1.00;;;23.10;99.90;;;;;;5074955;28;20222;-92
2022/10/20 05:42:10;;;;;;;3.40;0.82;;;23.10;99.90;;;;;;5076117;28;20664;-92
2022/10/20 05:44:42;;;;;;;2.90;1.10;;;23.00;99.90;;;;;;5073704;28;20290;-93
2022/10/20 05:47:12;;;;;;;5.20;1.40;;;23.00;99.90;;;;;;5083174;28;20239;-92
2022/10/20 05:49:45;;;;;;;7.32;1.40;;;22.90;99.90;;;;;;5076649;28;20225;-93
2022/10/20 05:52:17;;;;;;;3.22;1.13;;;22.90;99.90;;;;;;5074530;28;20282;-92
2022/10/20 05:54:50;;;;;;;6.03;1.73;;;22.90;99.90;;;;;;5072985;28;20231;-92
2022/10/20 05:57:22;;;;;;;5.15;1.20;;;22.90;99.90;;;;;;5060966;28;20212;-93
2022/10/20 05:59:54;;;;;;;3.85;1.00;;;22.90;99.90;;;;;;5061423;28;20662;-94
2022/10/20 06:02:26;;;;;;;2.28;1.30;;;22.90;99.90;;;;;;5072485;28;20286;-91
2022/10/20 06:04:59;;;;;;;6.35;1.45;;;23.00;99.90;;;;;;5081765;28;20203;-94
2022/10/20 06:07:32;;;;;;;4.25;1.13;;;23.00;99.90;;;;;;5074534;28;20291;-93
2022/10/20 06:10:04;;;;;;;4.07;1.40;;;22.90;99.90;;;;;;5073443;28;20249;-93
2022/10/20 06:12:38;;;;;;;3.70;0.85;;;22.80;99.90;;;;;;5074281;28;20203;-92
2022/10/20 06:15:09;;;;;;;3.50;1.02;;;22.60;99.90;;;;;;5072078;28;20224;-93
2022/10/20 06:17:40;;;;;;;3.53;1.10;;;22.60;99.90;;;;;;5069488;28;20207;-91
2022/10/20 06:20:15;;;;;;;8.82;1.73;;;22.60;99.90;;;;;;5071071;28;20227;-92
2022/10/20 06:22:46;;;;;;;7.10;1.50;;;22.60;99.90;;;;;;5056389;28;20282;-93
2022/10/20 06:25:17;;;;;;;5.90;1.20;;;22.60;99.90;;;;;;5074047;28;20203;-92
2022/10/20 06:27:48;;;;;;;4.00;1.30;;;22.50;99.90;;;;;;5073029;28;20207;-93
2022/10/20 06:30:20;;;;;;;6.50;1.33;;;22.50;99.90;;;;;;5073767;28;20226;-92
2022/10/20 06:32:56;;;;;;;6.35;1.50;;;22.40;99.90;;;;;;5073402;28;20290;-92
2022/10/20 06:35:30;;;;;;;5.25;1.35;;;22.40;99.90;;;;;;5073602;28;20609;-92
2022/10/20 06:38:02;;;;;;;6.50;1.63;;;22.40;99.90;;;;;;5083417;28;20279;-92
2022/10/20 06:40:36;;;;;;;6.40;1.83;;;22.30;99.90;;;;;;5076166;28;20204;-92
2022/10/20 06:43:08;;;;;;;8.30;1.60;;;22.20;99.90;;;;;;5080464;28;20207;-91
2022/10/20 06:45:41;;;;;;;8.13;1.75;;;22.20;99.90;;;;;;5077585;28;20203;-92
2022/10/20 06:48:12;;;;;;;7.60;1.50;;;22.20;99.90;;;;;;5056847;28;20680;-93
2022/10/20 06:50:47;;;;;;;5.78;1.45;;;22.20;99.90;;;;;;5075804;28;20230;-92
2022/10/20 06:53:19;;;;;;;5.07;1.50;;;22.20;99.90;;;;;;5077253;28;20693;-93
2022/10/20 06:56:00;;;;;;;6.75;1.40;;;22.10;99.90;;;;;;5091221;28;20238;-92
2022/10/20 06:58:33;;;;;;;9.20;2.28;;;22.10;99.90;;;;;;5065569;28;20683;-93
2022/10/20 07:01:06;;;;;;;5.82;1.63;;;22.00;99.90;;;;;;5075218;28;20197;-96
2022/10/20 07:03:38;;;;;;;6.80;1.70;;;22.00;99.90;;;;;;5067094;28;20204;-93
2022/10/20 07:06:16;;;;;;;7.78;1.90;;;22.00;99.90;;;;;;5077278;28;20204;-94
2022/10/20 07:08:49;;;;;;;6.07;1.65;;;22.00;99.90;;;;;;5076596;28;20196;-94
2022/10/20 07:11:23;;;;;;;8.13;1.80;;;21.90;99.90;;;;;;5075969;28;20224;-93
2022/10/20 07:13:54;;;;;;;8.18;1.80;;;21.90;99.90;;;;;;5059619;28;20204;-92
2022/10/20 07:16:29;;;;;;;8.52;2.20;;;22.00;99.90;;;;;;5056175;28;20200;-92
2022/10/20 07:19:01;;;;;;;6.47;1.88;;;22.00;99.90;;;;;;5056745;28;20299;-92
2022/10/20 07:21:35;;;;;;;7.47;2.00;;;22.00;99.90;;;;;;5060351;28;20691;-92
2022/10/20 07:24:08;;;;;;;4.40;1.58;;;22.00;99.90;;;;;;5053299;28;20604;-94
2022/10/20 07:26:42;;;;;;;7.50;2.05;;;21.90;99.90;;;;;;5055011;28;20210;-93
2022/10/20 07:29:18;;;;;;;6.30;1.55;;;21.90;99.90;;;;;;5053288;28;20259;-93
2022/10/20 07:31:51;;;;;;;6.18;1.65;;;21.90;99.90;;;;;;5056122;28;20215;-95
2022/10/20 07:34:24;;;;;;;5.10;1.48;;;22.00;99.90;;;;;;5057798;28;20278;-94
2022/10/20 07:36:59;;;;;;;5.90;1.55;;;21.90;99.90;;;;;;5063929;28;20203;-92
2022/10/20 07:39:30;;;;;;;5.38;1.60;;;21.90;99.90;;;;;;5049406;28;20752;-93
2022/10/20 07:42:03;;;;;;;5.97;2.00;;;21.90;99.90;;;;;;5056262;28;20208;-94
2022/10/20 07:44:35;;;;;;;7.53;2.60;;;21.90;99.90;;;;;;5051263;28;20206;-94
2022/10/20 07:47:06;;;;;;;3.88;1.65;;;22.00;99.90;;;;;;5048487;28;20943;-94
2022/10/20 07:49:37;;;;;;;8.00;1.70;;;21.90;99.90;;;;;;5048764;28;20216;-93
2022/10/20 07:52:11;;;;;;;8.27;2.00;;;21.90;99.90;;;;;;5048548;28;20223;-93
2022/10/20 07:54:43;;;;;;;6.38;2.17;;;21.90;99.90;;;;;;5049850;28;20207;-92
2022/10/20 07:57:15;;;;;;;5.63;1.98;;;21.90;99.90;;;;;;5049634;28;20921;-94
2022/10/20 07:59:47;;;;;;;6.25;2.03;;;21.90;99.90;;;;;;5048659;28;20215;-93
2022/10/20 08:02:19;;;;;;;9.45;2.30;;;21.90;99.90;;;;;;5049089;28;20298;-94
2022/10/20 08:04:52;;;;;;;10.50;2.50;;;21.80;99.90;;;;;;5047749;28;20205;-94
2022/10/20 08:07:27;;;;;;;9.55;2.22;;;21.80;99.90;;;;;;5046579;28;20244;-93
2022/10/20 08:09:58;;;;;;;12.25;2.63;;;21.80;99.90;;;;;;5051660;28;20261;-93
2022/10/20 08:12:31;;;;;;;15.63;3.10;;;21.70;99.90;;;;;;5054883;28;20215;-94
2022/10/20 08:15:02;;;;;;;9.65;2.13;;;21.70;99.90;;;;;;5051533;28;20247;-93
2022/10/20 08:17:34;;;;;;;11.90;2.70;;;21.60;99.90;;;;;;5050814;28;20232;-93
2022/10/20 08:20:06;;;;;;;10.05;2.42;;;21.60;99.90;;;;;;5056314;28;20202;-94
2022/10/20 08:22:40;;;;;;;8.77;1.95;;;21.60;99.90;;;;;;5049551;28;20249;-91
2022/10/20 08:25:16;;;;;;;12.23;2.20;;;21.60;99.90;;;;;;5047107;28;20206;-93
2022/10/20 08:27:47;;;;;;;6.47;1.65;;;21.60;99.90;;;;;;5049380;28;20210;-93
2022/10/20 08:30:18;;;;;;;7.10;1.80;;;21.60;99.90;;;;;;5048032;28;20220;-92
2022/10/20 08:32:58;;;;;;;11.32;2.05;;;21.50;99.90;;;;;;5051154;28;20208;-94
2022/10/20 08:35:29;;;;;;;9.07;1.95;;;21.50;99.90;;;;;;5060243;28;20228;-92
2022/10/20 08:38:04;;;;;;;6.38;1.80;;;21.50;99.90;;;;;;5049692;28;20216;-93
2022/10/20 08:40:38;;;;;;;7.40;1.92;;;21.50;99.90;;;;;;5055802;28;20221;-90
2022/10/20 08:43:12;;;;;;;6.38;1.80;;;21.40;99.90;;;;;;5059385;28;20224;-91
2022/10/20 08:45:44;;;;;;;7.20;2.08;;;21.40;99.90;;;;;;5048998;28;20223;-92
2022/10/20 08:48:19;;;;;;;11.93;2.25;;;21.40;99.90;;;;;;5054679;28;20322;-93
2022/10/20 08:50:52;;;;;;;10.52;2.40;;;21.50;99.90;;;;;;5053674;28;20227;-91
2022/10/20 08:53:29;;;;;;;10.32;2.17;;;21.50;99.90;;;;;;5051373;28;20207;-93
2022/10/20 08:56:01;;;;;;;6.32;1.92;;;21.50;99.90;;;;;;5052460;28;20207;-92
2022/10/20 08:58:32;;;;;;;10.75;2.40;;;21.50;99.90;;;;;;5051311;28;20227;-93
2022/10/20 09:01:11;;;;;;;11.07;2.50;;;21.50;99.90;;;;;;5055896;28;20192;-92
2022/10/20 09:03:44;;;;;;;10.85;2.25;;;21.50;99.90;;;;;;5050647;28;20257;-92
2022/10/20 09:06:19;;;;;;;9.15;2.20;;;21.50;99.90;;;;;;5052584;28;20211;-91
2022/10/20 09:08:54;;;;;;;9.63;2.33;;;21.50;99.90;;;;;;5053164;28;20211;-93
2022/10/20 09:11:30;;;;;;;11.98;2.50;;;21.50;99.90;;;;;;5051344;28;20220;-93
2022/10/20 09:14:02;;;;;;;13.00;2.45;;;21.50;99.90;;;;;;5051826;28;21255;-93
2022/10/20 09:16:37;;;;;;;12.45;2.50;;;21.50;99.90;;;;;;5051607;28;20595;-93
2022/10/20 09:19:14;;;;;;;7.90;2.20;;;21.50;99.90;;;;;;5053642;28;20210;-92
2022/10/20 09:21:47;;;;;;;8.35;2.50;;;21.50;99.90;;;;;;5054726;28;20199;-92
2022/10/20 09:24:23;;;;;;;11.27;2.80;;;21.50;99.90;;;;;;5050568;28;21543;-92
2022/10/20 09:26:55;;;;;;;10.82;2.55;;;21.50;99.90;;;;;;5051353;28;20203;-95
2022/10/20 09:29:39;;;;;;;11.40;2.53;;;21.50;99.90;;;;;;5048174;28;20207;-93
2022/10/20 09:32:22;;;;;;;10.23;2.65;;;21.50;99.90;;;;;;5050609;28;20222;-93
2022/10/20 09:34:57;;;;;;;8.60;2.22;;;21.50;99.90;;;;;;5050388;28;20746;-93
2022/10/20 09:37:28;;;;;;;9.68;2.10;;;21.50;99.90;;;;;;5048266;28;20660;-93
2022/10/20 09:40:03;;;;;;;12.52;2.65;;;21.60;99.90;;;;;;5050841;28;20212;-93
2022/10/20 09:42:39;;;;;;;8.32;2.40;;;21.50;99.90;;;;;;5056309;28;20203;-92
2022/10/20 09:45:20;;;;;;;9.45;2.13;;;21.50;99.90;;;;;;5053705;28;20203;-92
2022/10/20 09:47:56;;;;;;;12.13;2.60;;;21.50;99.90;;;;;;5052223;28;20239;-92
2022/10/20 09:50:31;;;;;;;12.50;2.33;;;21.50;99.90;;;;;;5052043;28;20259;-91
2022/10/20 09:53:05;;;;;;;6.95;1.80;;;21.50;99.90;;;;;;5051487;28;20215;-91
2022/10/20 09:55:46;;;;;;;9.13;2.20;;;21.50;99.90;;;;;;5051944;28;20214;-91
2022/10/20 09:58:24;;;;;;;9.18;1.83;;;21.50;99.90;;;;;;5051103;28;20211;-91
2022/10/20 10:01:02;;;;;;;7.97;1.80;;;21.50;99.90;;;;;;5054034;28;20207;-91
2022/10/20 10:03:43;;;;;;;9.93;1.95;;;21.40;99.90;;;;;;5061456;28;20199;-92
2022/10/20 10:06:42;;;;;;;8.48;1.65;;;21.40;99.90;;;;;;5067723;28;20201;-91
2022/10/20 10:09:33;;;;;;;4.45;1.27;;;21.40;99.90;;;;;;5049872;28;20223;-91
2022/10/20 10:12:17;;;;;;;5.57;1.52;;;21.40;99.90;;;;;;5055039;28;20226;-90
2022/10/20 10:14:57;;;;;;;5.28;1.40;;;21.40;99.90;;;;;;5057041;28;20328;-92
2022/10/20 10:17:36;;;;;;;6.18;2.00;;;21.30;99.90;;;;;;5056538;28;20694;-91
2022/10/20 10:20:27;;;;;;;4.60;1.30;;;21.40;99.90;;;;;;5056882;28;20699;-92
2022/10/20 10:23:27;;;;;;;4.70;1.30;;;21.40;99.90;;;;;;5060340;28;20253;-93
2022/10/20 10:26:00;;;;;;;6.32;1.63;;;21.30;99.90;;;;;;5056163;28;21470;-92
2022/10/20 10:28:39;;;;;;;6.68;1.40;;;21.30;99.90;;;;;;5054735;28;20604;-92
2022/10/20 10:31:24;;;;;;;3.53;1.20;;;21.20;99.90;;;;;;5054642;28;20314;-91
2022/10/20 10:34:00;;;;;;;5.60;1.50;;;21.10;99.90;;;;;;5055118;28;20200;-92
2022/10/20 10:36:37;;;;;;;3.88;1.70;;;21.20;99.90;;;;;;5061744;28;20242;-91
2022/10/20 10:39:13;;;;;;;5.80;1.85;;;21.20;99.90;;;;;;5068165;28;20196;-92
2022/10/20 10:42:06;;;;;;;4.28;1.50;;;21.10;99.90;;;;;;5056673;28;20226;-92
2022/10/20 10:44:52;;;;;;;4.43;1.50;;;21.10;99.90;;;;;;5056016;28;20215;-92
2022/10/20 10:47:52;;;;;;;2.95;1.33;;;21.10;99.90;;;;;;5043339;28;20297;-94
2022/10/20 10:50:36;;;;;;;4.18;1.02;;;21.10;99.90;;;;;;5036170;28;20730;-92
2022/10/20 10:53:25;;;;;;;3.03;1.27;;;21.10;99.90;;;;;;5036988;28;20213;-93
2022/10/20 10:56:11;;;;;;;4.88;1.27;;;21.10;99.90;;;;;;5036965;28;20689;-90
2022/10/20 10:58:53;;;;;;;3.63;1.20;;;21.10;99.90;;;;;;5037270;28;20216;-92
2022/10/20 11:01:56;;;;;;;3.78;1.17;;;21.10;99.90;;;;;;5028294;28;20208;-92
2022/10/20 11:04:47;;;;;;;5.80;1.52;;;21.10;99.90;;;;;;5025591;28;20666;-93
2022/10/20 11:07:31;;;;;;;4.47;1.35;;;21.10;99.90;;;;;;5037114;28;20260;-91
2022/10/20 11:10:13;;;;;;;7.50;1.60;;;21.10;99.90;;;;;;5038160;28;20201;-93
2022/10/20 11:13:20;;;;;;;6.32;1.73;;;21.10;99.90;;;;;;5036205;28;20205;-92
2022/10/20 11:16:05;;;;;;;7.15;1.70;;;21.10;99.90;;;;;;4992721;28;20278;-92
2022/10/20 11:18:53;;;;;;;9.13;1.80;;;21.00;99.90;;;;;;5036290;28;20205;-92
2022/10/20 11:21:34;;;;;;;6.22;1.63;;;20.90;99.90;;;;;;5033874;28;20223;-92
2022/10/20 11:24:32;;;;;;;8.80;1.88;;;20.90;99.90;;;;;;5038766;28;20211;-91
2022/10/20 11:27:08;;;;;;;7.88;1.88;;;20.90;99.90;;;;;;5036504;28;20211;-92
2022/10/20 11:29:44;;;;;;;6.82;1.67;;;20.90;99.90;;;;;;5035912;28;20676;-92
2022/10/20 11:32:27;;;;;;;7.30;1.75;;;20.70;99.90;;;;;;5035502;28;20224;-91
2022/10/20 11:35:10;;;;;;;9.88;2.10;;;20.80;99.90;;;;;;5036473;28;20302;-92
2022/10/20 11:37:51;;;;;;;7.68;2.17;;;20.70;99.90;;;;;;5034748;28;20209;-92
2022/10/20 11:40:28;;;;;;;8.40;1.85;;;20.70;99.90;;;;;;5033742;28;20338;-92
2022/10/20 11:43:08;;;;;;;10.68;2.38;;;20.70;99.90;;;;;;5035432;28;20205;-93
2022/10/20 11:45:48;;;;;;;10.00;2.15;;;20.70;99.90;;;;;;5036325;28;20207;-92
2022/10/20 11:48:25;;;;;;;10.13;2.20;;;20.80;99.90;;;;;;5053650;28;20257;-93
2022/10/20 11:51:15;;;;;;;10.68;2.22;;;20.80;99.90;;;;;;5053248;28;20243;-93
2022/10/20 11:54:13;;;;;;;9.55;2.42;;;20.70;99.90;;;;;;5052959;28;21795;-92
2022/10/20 11:57:02;;;;;;;13.90;2.13;;;20.70;99.90;;;;;;5052724;28;20788;-92
2022/10/20 12:00:20;;;;;;;9.48;2.17;;;20.60;99.90;;;;;;5053326;28;20211;-93
2022/10/20 12:03:15;;;;;;;8.82;2.20;;;20.50;99.90;;;;;;4970123;28;20221;-89
2022/10/20 12:06:08;;;;;;;13.35;2.40;;;20.50;99.90;;;;;;5055471;28;20211;-93
2022/10/20 12:08:51;;;;;;;12.60;2.20;;;20.60;99.90;;;;;;5050966;28;20226;-92
2022/10/20 12:11:30;;;;;;;9.63;2.35;;;20.60;99.90;;;;;;5051313;28;20595;-92
2022/10/20 12:14:06;;;;;;;15.52;2.70;;;20.60;99.90;;;;;;5051136;28;20238;-92
2022/10/20 12:17:15;;;;;;;8.07;2.15;;;20.60;99.90;;;;;;5055719;28;20302;-91
2022/10/20 12:19:49;;;;;;;12.80;2.30;;;20.60;99.90;;;;;;5052724;28;20215;-93
2022/10/20 12:22:43;;;;;;;9.13;2.50;;;20.70;99.90;;;;;;5056355;28;20201;-93
2022/10/20 12:25:42;;;;;;;13.90;2.78;;;20.60;99.90;;;;;;5056146;28;20208;-92
2022/10/20 12:28:42;;;;;;;13.75;2.53;;;20.60;99.90;;;;;;5053254;28;20212;-92
2022/10/20 12:31:15;;;;;;;10.40;2.08;;;20.70;99.90;;;;;;5058771;28;20231;-92
2022/10/20 12:34:06;;;;;;;11.50;2.42;;;20.60;99.90;;;;;;5073666;28;20200;-93
2022/10/20 12:36:41;;;;;;;11.35;2.33;;;20.70;99.90;;;;;;5054390;28;20279;-91
2022/10/20 12:39:18;;;;;;;11.00;2.30;;;20.70;99.90;;;;;;5054810;28;20227;-91
2022/10/20 12:42:00;;;;;;;10.95;2.10;;;20.70;99.90;;;;;;5053240;28;20255;-93
2022/10/20 12:44:42;;;;;;;11.52;2.17;;;20.70;99.90;;;;;;5058236;28;20208;-91
2022/10/20 12:47:21;;;;;;;9.13;2.05;;;20.70;99.90;;;;;;5049920;28;20243;-91
2022/10/20 12:49:58;;;;;;;10.63;2.30;;;20.80;99.90;;;;;;5052571;28;20207;-92
2022/10/20 12:52:34;;;;;;;10.82;2.30;;;20.70;99.90;;;;;;5051756;28;20817;-92
2022/10/20 12:55:09;;;;;;;11.00;2.33;;;20.70;99.90;;;;;;5050967;28;20684;-92
2022/10/20 12:57:44;;;;;;;13.63;2.45;;;20.70;99.90;;;;;;5051093;28;20204;-91
2022/10/20 13:00:43;;;;;;;9.45;2.38;;;20.70;99.90;;;;;;5050922;28;20292;-92
2022/10/20 13:03:45;;;;;;;12.48;2.28;;;20.70;99.90;;;;;;5036017;28;20741;-93
2022/10/20 13:06:47;;;;;;;12.18;2.08;;;20.70;99.90;;;;;;5053417;28;20285;-92
2022/10/20 13:09:29;;;;;;;12.60;2.63;;;20.60;99.90;;;;;;5053254;28;20207;-92
2022/10/20 13:12:04;;;;;;;13.60;2.38;;;20.60;99.90;;;;;;5052672;28;20224;-94
2022/10/20 13:15:03;;;;;;;8.45;2.22;;;20.60;99.90;;;;;;5053337;28;21507;-91
2022/10/20 13:17:57;;;;;;;9.77;1.88;;;20.60;99.90;;;;;;5049796;28;20199;-94
2022/10/20 13:20:39;;;;;;;10.77;1.88;;;20.60;99.90;;;;;;5046298;28;20223;-93
2022/10/20 13:23:18;;;;;;;9.95;2.30;;;20.60;99.90;;;;;;5059709;28;21480;-92
2022/10/20 13:25:52;;;;;;;10.07;2.30;;;20.60;99.90;;;;;;5055681;28;20307;-92
2022/10/20 13:28:26;;;;;;;11.50;2.42;;;20.60;99.90;;;;;;5048946;28;20199;-93
2022/10/20 13:31:08;;;;;;;11.05;2.33;;;20.50;99.90;;;;;;5050330;28;20275;-93
2022/10/20 13:33:47;;;;;;;13.27;2.60;;;20.50;99.90;;;;;;5043959;28;20211;-92
2022/10/20 13:36:25;;;;;;;10.25;2.35;;;20.50;99.90;;;;;;5038441;28;20204;-93